Time;durP1;ratioP1;P1;durP2;ratioP2;P2;SDS_P1;SDS_P2;PMS_P1;PMS_P2;Temp;Humidity;BMP_temperature;BMP_pressure;BME280_temperature;BME280_humidity;BME280_pressure;Samples;Min_cycle;Max_cycle;Signal;HPM_P1;HPM_P2
2021/06/03 00:01:48;;;;;;;14.95;9.73;;;;;;;10.84;100.00;97836.38;5059673;28;20036;-75
2021/06/03 00:04:13;;;;;;;16.40;10.50;;;;;;;10.78;100.00;97826.03;5059535;28;20448;-74
2021/06/03 00:06:39;;;;;;;15.93;10.60;;;;;;;10.76;100.00;97831.50;5077642;28;20093;-75
2021/06/03 00:09:07;;;;;;;27.40;10.57;;;;;;;10.76;100.00;97826.16;5077278;28;20112;-74
2021/06/03 00:11:33;;;;;;;17.77;9.85;;;;;;;10.85;100.00;97843.47;5063965;28;20029;-75
2021/06/03 00:13:59;;;;;;;19.35;10.07;;;;;;;10.73;100.00;97823.66;5022678;28;20052;-75
2021/06/03 00:16:24;;;;;;;17.15;10.48;;;;;;;10.66;100.00;97827.63;5039576;28;20479;-74
2021/06/03 00:18:50;;;;;;;17.92;10.43;;;;;;;10.66;100.00;97829.44;5057467;28;20043;-75
2021/06/03 00:21:16;;;;;;;19.42;10.27;;;;;;;10.44;100.00;97812.88;5039442;28;20618;-75
2021/06/03 00:23:41;;;;;;;20.10;11.18;;;;;;;10.55;100.00;97830.03;5045928;28;20057;-75
2021/06/03 00:26:07;;;;;;;15.00;10.23;;;;;;;10.55;100.00;97821.16;5077352;28;20483;-74
2021/06/03 00:28:33;;;;;;;21.50;11.85;;;;;;;10.54;100.00;97831.00;5059484;28;20052;-75
2021/06/03 00:30:59;;;;;;;18.83;11.75;;;;;;;10.57;100.00;97837.97;5042891;28;21189;-75
2021/06/03 00:33:25;;;;;;;18.15;11.02;;;;;;;10.46;100.00;97835.91;5059389;28;20028;-75
2021/06/03 00:35:51;;;;;;;17.13;10.38;;;;;;;10.34;100.00;97832.13;5042650;28;20173;-74
2021/06/03 00:38:17;;;;;;;14.18;9.50;;;;;;;10.43;100.00;97851.28;5077005;28;20036;-75
2021/06/03 00:40:42;;;;;;;12.23;9.90;;;;;;;10.23;100.00;97823.00;5059530;28;20079;-75
2021/06/03 00:43:08;;;;;;;18.95;10.45;;;;;;;10.17;100.00;97837.56;5059237;28;20085;-75
2021/06/03 00:45:38;;;;;;;13.85;9.15;;;;;;;10.12;100.00;97839.56;5064251;28;20526;-74
2021/06/03 00:48:05;;;;;;;19.00;9.30;;;;;;;10.10;100.00;97845.97;5022584;28;20124;-75
2021/06/03 00:50:37;;;;;;;11.85;9.23;;;;;;;10.07;100.00;97848.81;5051504;28;20033;-74
2021/06/03 00:53:05;;;;;;;16.25;9.80;;;;;;;10.08;100.00;97856.75;5059253;28;20044;-74
2021/06/03 00:55:33;;;;;;;25.58;10.77;;;;;;;10.00;100.00;97848.28;5042424;28;20033;-75
2021/06/03 00:57:58;;;;;;;20.77;10.45;;;;;;;9.88;100.00;97835.59;5059188;28;20060;-74
2021/06/03 01:00:25;;;;;;;15.30;9.43;;;;;;;9.96;100.00;97861.91;5058975;28;20452;-74
2021/06/03 01:02:50;;;;;;;22.17;10.07;;;;;;;10.00;100.00;97852.75;5059215;28;20025;-75
2021/06/03 01:05:28;;;;;;;13.73;9.75;;;;;;;9.99;100.00;97846.56;5058853;28;20032;-75
2021/06/03 01:07:57;;;;;;;20.58;9.90;;;;;;;9.94;100.00;97848.63;5077057;28;20418;-74
2021/06/03 01:10:26;;;;;;;13.60;9.10;;;;;;;9.91;100.00;97843.44;5039534;28;20491;-74
2021/06/03 01:13:12;;;;;;;16.88;9.73;;;;;;;9.87;100.00;97849.03;5039071;28;20414;-75
2021/06/03 01:15:42;;;;;;;13.27;9.77;;;;;;;9.87;100.00;97851.72;5055823;28;20440;-74
2021/06/03 01:18:09;;;;;;;13.23;9.77;;;;;;;9.86;100.00;97858.88;5038759;28;20029;-74
2021/06/03 01:20:35;;;;;;;16.13;9.73;;;;;;;9.79;100.00;97849.44;5035887;28;20032;-75
2021/06/03 01:23:11;;;;;;;17.83;10.63;;;;;;;9.81;100.00;97853.75;5018977;28;20108;-75
2021/06/03 01:25:36;;;;;;;15.20;10.27;;;;;;;9.74;100.00;97848.84;5019119;28;20036;-74
2021/06/03 01:28:03;;;;;;;14.68;9.95;;;;;;;9.73;100.00;97855.13;5026649;28;20029;-75
2021/06/03 01:30:34;;;;;;;18.52;10.98;;;;;;;9.74;100.00;97846.16;5038593;28;20032;-75
2021/06/03 01:33:09;;;;;;;22.63;10.85;;;;;;;9.81;100.00;97858.25;5048231;28;20025;-75
2021/06/03 01:35:37;;;;;;;14.65;10.02;;;;;;;9.78;100.00;97856.59;5055416;28;20036;-75
2021/06/03 01:38:05;;;;;;;16.80;10.32;;;;;;;9.78;100.00;97845.06;5038633;28;20048;-74
2021/06/03 01:40:32;;;;;;;19.75;10.50;;;;;;;9.87;100.00;97863.28;5055394;28;20380;-74
2021/06/03 01:42:59;;;;;;;19.52;10.30;;;;;;;9.79;100.00;97854.78;5055419;28;20016;-74
2021/06/03 01:45:26;;;;;;;16.23;10.07;;;;;;;9.76;100.00;97850.47;5055107;28;20475;-74
2021/06/03 01:47:52;;;;;;;20.25;11.85;;;;;;;9.82;100.00;97867.97;5055148;28;20025;-75
2021/06/03 01:50:18;;;;;;;19.95;11.63;;;;;;;9.74;100.00;97860.41;5055312;28;20024;-75
2021/06/03 01:52:44;;;;;;;24.77;12.18;;;;;;;9.70;100.00;97855.28;5073286;28;20071;-74
2021/06/03 01:55:12;;;;;;;21.77;11.98;;;;;;;9.79;100.00;97870.81;5055175;28;20492;-75
2021/06/03 01:57:38;;;;;;;23.70;11.60;;;;;;;9.79;100.00;97873.50;5055078;28;20051;-75
2021/06/03 02:00:08;;;;;;;42.72;13.30;;;;;;;9.74;100.00;97862.19;5065680;28;20033;-74
2021/06/03 02:02:33;;;;;;;21.17;12.02;;;;;;;9.66;100.00;97859.91;5018292;28;20067;-74
2021/06/03 02:04:59;;;;;;;26.48;12.27;;;;;;;9.67;100.00;97876.81;5035159;28;20503;-74
2021/06/03 02:07:24;;;;;;;46.45;12.77;;;;;;;9.57;100.00;97862.22;5052645;28;20484;-74
2021/06/03 02:09:50;;;;;;;84.30;12.88;;;;;;;9.55;100.00;97858.78;5052992;28;20025;-74
2021/06/03 02:12:16;;;;;;;43.00;14.07;;;;;;;9.54;100.00;97854.38;5034877;28;20056;-74
2021/06/03 02:14:41;;;;;;;17.45;10.95;;;;;;;9.63;100.00;97870.78;5038718;28;20443;-74
2021/06/03 02:17:21;;;;;;;57.58;11.90;;;;;;;9.56;100.00;97857.84;5037955;28;20024;-74
2021/06/03 02:20:09;;;;;;;100.85;12.13;;;;;;;9.53;100.00;97860.66;5046688;28;20024;-74
2021/06/03 02:22:36;;;;;;;54.97;12.18;;;;;;;9.54;100.00;97875.72;5072260;28;20024;-74
2021/06/03 02:25:04;;;;;;;25.63;11.57;;;;;;;9.47;100.00;97882.34;5054832;28;20442;-75
2021/06/03 02:27:30;;;;;;;26.65;12.15;;;;;;;9.29;100.00;97857.44;5054169;28;20028;-74
2021/06/03 02:29:56;;;;;;;19.52;12.48;;;;;;;9.39;100.00;97876.53;5040957;28;20545;-74
2021/06/03 02:32:22;;;;;;;18.67;12.82;;;;;;;9.37;100.00;97881.09;5017781;28;20032;-75
2021/06/03 02:34:48;;;;;;;18.98;13.50;;;;;;;9.37;100.00;97878.44;5018029;28;20032;-74
2021/06/03 02:37:15;;;;;;;29.63;13.95;;;;;;;9.37;100.00;97878.44;5034255;28;20128;-74
2021/06/03 02:39:44;;;;;;;22.70;13.30;;;;;;;9.28;100.00;97866.44;5034176;28;20123;-74
2021/06/03 02:42:10;;;;;;;21.90;13.43;;;;;;;9.30;100.00;97877.88;5034608;28;20029;-74
2021/06/03 02:44:37;;;;;;;22.60;12.57;;;;;;;9.29;100.00;97875.31;5017653;28;20040;-74
2021/06/03 02:47:04;;;;;;;25.48;13.45;;;;;;;9.32;100.00;97883.16;5052085;28;20012;-74
2021/06/03 02:49:30;;;;;;;22.98;13.38;;;;;;;9.30;100.00;97877.88;5034078;28;20086;-74
2021/06/03 02:51:56;;;;;;;24.42;13.65;;;;;;;9.45;100.00;97898.44;5052043;28;20445;-74
2021/06/03 02:54:21;;;;;;;32.63;12.93;;;;;;;9.50;100.00;97892.88;5051646;28;20028;-75
2021/06/03 02:56:47;;;;;;;49.38;11.70;;;;;;;9.43;100.00;97872.78;5017447;28;20025;-75
2021/06/03 02:59:13;;;;;;;38.83;11.45;;;;;;;9.50;100.00;97900.88;5033988;28;20476;-75
2021/06/03 03:01:38;;;;;;;89.22;12.63;;;;;;;9.49;100.00;97888.47;5051629;28;20032;-74
2021/06/03 03:04:04;;;;;;;49.47;12.07;;;;;;;9.59;100.00;97900.41;5051710;28;20021;-74
2021/06/03 03:06:29;;;;;;;30.38;11.77;;;;;;;9.57;100.00;97886.25;5051497;28;20083;-75
2021/06/03 03:08:55;;;;;;;93.28;12.23;;;;;;;9.74;100.00;97900.47;5051607;28;20107;-74
2021/06/03 03:11:21;;;;;;;30.10;11.77;;;;;;;9.69;100.00;97886.47;5051598;28;20029;-75
2021/06/03 03:13:47;;;;;;;50.58;11.70;;;;;;;9.67;100.00;97877.69;5033535;28;20166;-74
2021/06/03 03:16:12;;;;;;;19.00;11.02;;;;;;;9.85;100.00;97888.31;5048912;28;20102;-74
2021/06/03 03:18:38;;;;;;;22.73;11.27;;;;;;;9.98;100.00;97911.63;5071336;28;20480;-74
2021/06/03 03:21:05;;;;;;;16.80;10.85;;;;;;;9.97;100.00;97896.53;5053750;28;20032;-75
2021/06/03 03:23:31;;;;;;;21.02;11.05;;;;;;;10.09;100.00;97903.91;5035701;28;20035;-75
2021/06/03 03:25:56;;;;;;;24.00;10.10;;;;;;;10.13;100.00;97902.81;5016910;28;20025;-75
2021/06/03 03:28:22;;;;;;;20.27;10.25;;;;;;;10.15;100.00;97894.75;5051503;28;20120;-74
2021/06/03 03:30:48;;;;;;;21.75;10.40;;;;;;;10.27;100.00;97905.59;5033656;28;20024;-74
2021/06/03 03:33:15;;;;;;;18.20;10.20;;;;;;;10.45;100.00;97924.25;5032507;28;20909;-74
2021/06/03 03:35:45;;;;;;;16.10;10.35;;;;;;;10.50;100.00;97917.69;5016710;28;20484;-74
2021/06/03 03:38:11;;;;;;;24.05;11.27;;;;;;;10.52;100.00;97907.78;5051004;28;20049;-74
2021/06/03 03:40:37;;;;;;;20.75;10.13;;;;;;;10.59;100.00;97908.28;5034446;28;20029;-74
2021/06/03 03:43:03;;;;;;;22.83;10.63;;;;;;;10.68;100.00;97908.63;5036717;28;20403;-74
2021/06/03 03:45:28;;;;;;;17.52;10.52;;;;;;;10.83;100.00;97926.50;5070951;28;20063;-75
2021/06/03 03:47:54;;;;;;;13.82;10.20;;;;;;;10.88;100.00;97924.44;5071147;28;20058;-74
2021/06/03 03:50:21;;;;;;;22.20;10.73;;;;;;;10.84;100.00;97914.84;5053204;28;20479;-74
2021/06/03 03:52:47;;;;;;;25.38;9.75;;;;;;;11.01;100.00;97921.94;5052903;28;20036;-74
2021/06/03 03:55:15;;;;;;;18.95;11.00;;;;;;;11.16;100.00;97929.06;5053104;28;20041;-74
2021/06/03 03:57:41;;;;;;;17.02;10.88;;;;;;;11.14;100.00;97903.31;5052808;28;20093;-75
2021/06/03 04:00:12;;;;;;;29.38;11.23;;;;;;;11.25;100.00;97933.88;5053233;28;20067;-75
2021/06/03 04:02:38;;;;;;;78.33;12.57;;;;;;;11.27;100.00;97936.47;5052966;28;20402;-74
2021/06/03 04:05:05;;;;;;;40.53;13.70;;;;;;;11.28;100.00;97948.91;5053180;28;20024;-74
2021/06/03 04:07:31;;;;;;;25.40;10.48;;;;;;;11.35;100.00;97934.22;5052842;28;20036;-75
2021/06/03 04:09:56;;;;;;;48.53;12.75;;;;;;;11.39;100.00;97933.06;5050893;28;20034;-75
2021/06/03 04:12:22;;;;;;;31.92;11.45;;;;;;;11.47;100.00;97917.41;5016555;28;20059;-76
2021/06/03 04:14:48;;;;;;;20.38;11.45;;;;;;;11.72;100.00;97944.47;5032976;28;20033;-75
2021/06/03 04:17:13;;;;;;;19.92;10.90;;;;;;;11.84;100.00;97940.22;5038559;28;20043;-75
2021/06/03 04:19:39;;;;;;;21.02;11.57;;;;;;;11.81;100.00;97925.16;5070670;28;20032;-75
2021/06/03 04:22:04;;;;;;;24.95;10.00;;;;;;;11.90;100.00;97945.19;5066430;28;20391;-75
2021/06/03 04:24:30;;;;;;;37.58;10.13;;;;;;;11.72;100.00;97939.13;5050536;28;20056;-76
2021/06/03 04:26:56;;;;;;;17.48;10.07;;;;;;;11.95;100.00;97946.66;5032662;28;20036;-76
2021/06/03 04:29:22;;;;;;;25.13;10.15;;;;;;;11.92;100.00;97952.19;5033052;28;20040;-77
2021/06/03 04:31:47;;;;;;;17.23;10.82;;;;;;;11.79;100.00;97944.97;5032939;28;20032;-79
2021/06/03 04:34:13;;;;;;;33.28;11.18;;;;;;;11.74;100.00;97947.06;5038704;28;20025;-77
2021/06/03 04:36:39;;;;;;;27.27;10.57;;;;;;;11.95;100.00;97937.72;5046638;28;20472;-74
2021/06/03 04:39:04;;;;;;;15.82;9.88;;;;;;;12.30;100.00;97949.84;5050087;28;20483;-72
2021/06/03 04:41:30;;;;;;;20.85;10.52;;;;;;;12.44;100.00;97952.50;5052032;28;20025;-75
2021/06/03 04:43:56;;;;;;;23.23;9.98;;;;;;;12.73;100.00;97966.78;5051788;28;20028;-74
2021/06/03 04:46:23;;;;;;;27.10;9.95;;;;;;;12.89;100.00;97963.94;5056280;28;20074;-74
2021/06/03 04:48:48;;;;;;;25.13;11.20;;;;;;;12.98;100.00;97968.75;5039543;28;20078;-74
2021/06/03 04:51:14;;;;;;;18.38;10.40;;;;;;;13.37;100.00;97967.97;5056348;28;20430;-74
2021/06/03 04:53:39;;;;;;;21.90;9.88;;;;;;;14.56;95.46;97966.88;5073841;28;20086;-74
2021/06/03 04:56:05;;;;;;;18.38;9.23;;;;;;;14.97;89.23;97964.78;5056256;28;20448;-74
2021/06/03 04:58:30;;;;;;;9.63;6.97;;;;;;;16.24;84.10;97973.13;5074182;28;20483;-74
2021/06/03 05:00:56;;;;;;;15.25;7.10;;;;;;;16.53;79.20;97987.00;5056116;28;20028;-74
2021/06/03 05:03:21;;;;;;;13.20;7.95;;;;;;;16.52;79.11;97977.22;5056225;28;20023;-74
2021/06/03 05:05:47;;;;;;;14.48;7.00;;;;;;;17.97;71.31;97976.00;5073745;28;20028;-74
2021/06/03 05:08:13;;;;;;;16.65;7.25;;;;;;;18.71;67.26;97991.22;5055857;28;20169;-74
2021/06/03 05:10:39;;;;;;;16.20;7.10;;;;;;;20.01;64.35;97992.91;5055981;28;20017;-74
2021/06/03 05:13:06;;;;;;;15.85;7.00;;;;;;;19.93;61.41;97987.31;5056027;28;20444;-74
2021/06/03 05:15:32;;;;;;;15.43;7.45;;;;;;;18.75;65.64;97983.69;5056185;28;20027;-74
2021/06/03 05:17:58;;;;;;;14.65;8.82;;;;;;;17.70;70.44;97990.03;5073704;28;20024;-76
2021/06/03 05:20:25;;;;;;;11.57;6.78;;;;;;;17.14;72.59;97985.69;5055696;28;20066;-76
2021/06/03 05:22:53;;;;;;;11.93;5.43;;;;;;;17.57;70.78;97992.03;5056923;28;20025;-76
2021/06/03 05:25:21;;;;;;;10.57;4.80;;;;;;;17.86;69.17;97995.88;5055669;28;20450;-76
2021/06/03 05:27:46;;;;;;;6.68;4.85;;;;;;;17.75;70.54;97993.19;5038760;28;20025;-76
2021/06/03 05:30:15;;;;;;;15.73;5.80;;;;;;;18.72;66.82;98009.22;5038725;28;20112;-77
2021/06/03 05:32:40;;;;;;;14.65;5.80;;;;;;;18.56;67.07;98011.53;5039546;28;20025;-76
2021/06/03 05:35:08;;;;;;;11.98;5.25;;;;;;;20.53;61.93;98015.22;5035702;28;20507;-76
2021/06/03 05:37:34;;;;;;;8.32;5.32;;;;;;;21.80;55.12;98013.59;5042074;28;20056;-77
2021/06/03 05:39:59;;;;;;;9.38;6.00;;;;;;;22.14;54.77;98006.50;5073277;28;20029;-77
2021/06/03 05:42:26;;;;;;;21.80;7.85;;;;;;;22.97;51.63;97991.50;5073378;28;20032;-76
2021/06/03 05:44:51;;;;;;;21.65;10.45;;;;;;;23.82;49.48;98003.31;5055387;28;20036;-76
2021/06/03 05:47:17;;;;;;;13.55;7.38;;;;;;;25.61;45.51;98025.03;5055400;28;20020;-77
2021/06/03 05:49:42;;;;;;;10.93;5.88;;;;;;;26.70;41.92;98029.34;5055311;28;20020;-77
2021/06/03 05:52:08;;;;;;;13.68;8.70;;;;;;;26.45;40.84;98024.25;5073023;28;20024;-77
2021/06/03 05:54:34;;;;;;;18.83;5.70;;;;;;;25.85;41.46;98022.19;5073063;28;20075;-77
2021/06/03 05:57:00;;;;;;;13.02;6.65;;;;;;;27.37;39.35;98033.03;5054442;28;20029;-77
2021/06/03 05:59:26;;;;;;;26.23;14.82;;;;;;;27.90;38.07;98025.56;5053048;28;20025;-77
2021/06/03 06:01:56;;;;;;;9.02;5.32;;;;;;;27.01;38.96;98032.00;5053254;28;20472;-77
2021/06/03 06:06:50;;;;;;;16.27;6.00;;;;;;;27.50;38.26;98034.31;5072870;28;20403;-77
2021/06/03 06:09:15;;;;;;;9.55;4.93;;;;;;;27.33;37.61;98020.69;5055079;28;20021;-77
2021/06/03 06:11:43;;;;;;;58.08;35.42;;;;;;;27.62;37.19;98033.63;5055130;28;20032;-76
2021/06/03 06:14:09;;;;;;;10.80;4.65;;;;;;;27.42;37.35;98033.34;5055225;28;20391;-77
2021/06/03 06:16:35;;;;;;;24.00;16.33;;;;;;;28.05;37.33;98023.66;5054950;28;20032;-75
2021/06/03 06:19:02;;;;;;;15.80;5.60;;;;;;;28.69;35.31;98004.44;5054493;28;20060;-77
2021/06/03 06:21:28;;;;;;;13.60;5.57;;;;;;;26.90;38.48;98024.22;5072550;28;20032;-75
2021/06/03 06:23:53;;;;;;;10.93;4.90;;;;;;;28.26;36.87;98011.81;5037793;28;20051;-75
2021/06/03 06:26:20;;;;;;;17.77;6.40;;;;;;;29.08;36.07;98024.06;5054624;28;20452;-75
2021/06/03 06:28:46;;;;;;;7.47;4.88;;;;;;;29.44;35.31;98029.47;5037817;28;20094;-76
2021/06/03 06:31:13;;;;;;;13.88;5.28;;;;;;;30.49;32.80;98017.03;5054414;28;20060;-76
2021/06/03 06:33:39;;;;;;;7.60;5.00;;;;;;;30.92;32.39;98027.72;5054254;28;20503;-76
2021/06/03 06:36:06;;;;;;;16.08;5.65;;;;;;;31.35;31.56;98029.00;5070463;28;20073;-77
2021/06/03 06:38:32;;;;;;;22.13;5.90;;;;;;;31.81;30.99;98020.63;5034680;28;20036;-77
2021/06/03 06:40:58;;;;;;;18.55;5.82;;;;;;;32.04;30.37;98015.50;5034352;28;20021;-77
2021/06/03 06:43:24;;;;;;;24.48;8.70;;;;;;;32.44;30.11;98027.22;5052125;28;20388;-77
2021/06/03 06:45:49;;;;;;;8.45;5.05;;;;;;;32.57;29.52;98027.19;5017630;28;20016;-77
2021/06/03 06:48:16;;;;;;;17.75;5.95;;;;;;;31.60;32.11;98029.22;5033947;28;20474;-77
2021/06/03 06:50:42;;;;;;;13.35;5.38;;;;;;;31.41;31.38;98035.63;5034435;28;20099;-78
2021/06/03 06:53:09;;;;;;;10.80;5.80;;;;;;;31.08;32.35;98035.63;5017328;28;20122;-77
2021/06/03 06:55:35;;;;;;;16.60;5.03;;;;;;;31.30;30.16;98031.56;5034210;28;20025;-77
2021/06/03 06:58:01;;;;;;;6.40;3.85;;;;;;;32.26;30.56;98029.88;5051661;28;20028;-77
2021/06/03 07:00:31;;;;;;;14.07;4.38;;;;;;;32.29;29.91;98020.28;5051855;28;20480;-77
2021/06/03 07:02:57;;;;;;;6.90;3.92;;;;;;;33.07;28.82;98021.72;5017388;28;20131;-77
2021/06/03 07:05:23;;;;;;;12.23;3.85;;;;;;;33.69;27.30;98015.16;5033885;28;20488;-77
2021/06/03 07:07:49;;;;;;;9.43;3.40;;;;;;;33.84;27.53;98023.16;5050831;28;20025;-77
2021/06/03 07:10:15;;;;;;;13.25;3.67;;;;;;;34.02;25.33;98015.66;5033525;28;20039;-77
2021/06/03 07:12:41;;;;;;;9.25;3.17;;;;;;;33.38;24.91;98007.78;5033854;28;20423;-78
2021/06/03 07:15:12;;;;;;;6.85;3.00;;;;;;;32.14;26.55;98009.47;5033769;28;20036;-78
2021/06/03 07:17:38;;;;;;;9.00;3.30;;;;;;;32.42;25.30;98009.13;5017432;28;20447;-77
2021/06/03 07:20:12;;;;;;;8.35;3.40;;;;;;;33.15;25.65;98007.56;5033678;28;20476;-78
2021/06/03 07:22:43;;;;;;;10.10;4.45;;;;;;;33.11;24.69;98007.19;5034960;28;20028;-77
2021/06/03 07:25:10;;;;;;;9.40;3.38;;;;;;;33.62;23.94;97998.63;5052363;28;20036;-78
2021/06/03 07:27:36;;;;;;;6.90;3.17;;;;;;;33.91;23.01;97996.13;5071460;28;20432;-78
2021/06/03 07:30:04;;;;;;;3.33;3.03;;;;;;;33.96;24.49;98015.72;5029118;28;20457;-77
2021/06/03 07:32:30;;;;;;;17.88;5.15;;;;;;;33.56;24.21;98013.34;5020529;28;20036;-76
2021/06/03 07:34:55;;;;;;;10.27;3.70;;;;;;;33.74;25.15;98018.97;5053718;28;20410;-77
2021/06/03 07:37:21;;;;;;;31.42;4.25;;;;;;;33.92;22.93;97979.25;5053187;28;20419;-78
2021/06/03 07:39:47;;;;;;;8.82;6.93;;;;;;;33.83;23.27;98002.84;5053404;28;20051;-78
2021/06/03 07:42:13;;;;;;;14.95;3.00;;;;;;;33.90;23.15;97994.44;5043600;28;20479;-78
2021/06/03 07:44:40;;;;;;;10.38;3.05;;;;;;;33.58;23.50;97991.78;5051252;28;20021;-77
2021/06/03 07:47:06;;;;;;;9.13;4.07;;;;;;;33.98;23.90;98006.09;5033330;28;20033;-77
2021/06/03 07:49:31;;;;;;;10.40;3.25;;;;;;;33.98;23.54;98008.00;5051107;28;20140;-77
2021/06/03 07:51:57;;;;;;;7.90;3.15;;;;;;;33.77;23.19;98006.56;5016621;28;20036;-77
2021/06/03 07:54:23;;;;;;;7.47;3.03;;;;;;;33.98;23.82;98005.22;5033035;28;20036;-77
2021/06/03 07:56:49;;;;;;;8.55;3.42;;;;;;;34.66;22.50;98005.88;5051200;28;20053;-77
2021/06/03 07:59:15;;;;;;;7.97;3.22;;;;;;;34.39;20.98;97983.13;5033088;28;20051;-77
2021/06/03 08:01:41;;;;;;;7.28;3.42;;;;;;;35.07;21.26;97997.47;5033680;28;20527;-77
2021/06/03 08:04:06;;;;;;;14.93;6.93;;;;;;;36.04;20.79;97984.78;5016531;28;20025;-77
2021/06/03 08:06:32;;;;;;;6.30;3.70;;;;;;;35.31;19.50;97990.91;5033024;28;20025;-77
2021/06/03 08:08:58;;;;;;;5.72;2.70;;;;;;;34.64;20.23;97981.06;5051296;28;20452;-77
2021/06/03 08:11:24;;;;;;;23.55;3.53;;;;;;;34.23;20.73;97984.63;5035218;28;20499;-76
2021/06/03 08:13:50;;;;;;;32.72;5.20;;;;;;;35.22;19.42;97988.72;5070707;28;20067;-77
2021/06/03 08:16:15;;;;;;;20.02;4.15;;;;;;;35.51;20.84;98001.66;5061629;28;20047;-77
2021/06/03 08:18:41;;;;;;;28.77;4.90;;;;;;;36.57;18.45;97983.69;5033064;28;20028;-77
2021/06/03 08:21:08;;;;;;;16.73;4.13;;;;;;;37.01;17.48;97977.25;5036291;28;20033;-77
2021/06/03 08:23:34;;;;;;;9.48;3.03;;;;;;;36.14;18.08;97964.69;5054693;28;20025;-77
2021/06/03 08:26:00;;;;;;;9.27;3.50;;;;;;;36.41;20.10;97985.28;5036972;28;20021;-77
2021/06/03 08:28:27;;;;;;;6.72;3.05;;;;;;;35.05;21.08;97987.69;5036962;28;20025;-76
2021/06/03 08:30:56;;;;;;;16.50;8.00;;;;;;;33.60;22.64;97992.44;5037172;28;20098;-76
2021/06/03 08:33:21;;;;;;;7.82;3.00;;;;;;;32.83;23.79;97992.00;5037133;28;20047;-76
2021/06/03 08:35:47;;;;;;;8.55;3.63;;;;;;;32.07;23.60;97998.44;5037070;28;20025;-76
2021/06/03 08:38:13;;;;;;;5.82;3.20;;;;;;;32.67;22.31;97999.81;5036433;28;20041;-77
2021/06/03 08:40:48;;;;;;;7.80;3.13;;;;;;;32.34;23.84;98006.59;5036459;28;20021;-76
2021/06/03 08:43:15;;;;;;;6.35;3.05;;;;;;;32.67;22.63;98007.28;5036801;28;20055;-76
2021/06/03 08:45:43;;;;;;;4.80;2.65;;;;;;;33.58;22.25;98005.66;5054678;28;20452;-77
2021/06/03 08:48:09;;;;;;;4.32;2.50;;;;;;;33.04;21.84;97988.88;5020298;28;20033;-76
2021/06/03 08:50:38;;;;;;;5.82;2.70;;;;;;;33.71;22.51;98021.34;5019735;28;20630;-76
2021/06/03 08:53:05;;;;;;;6.05;3.17;;;;;;;32.97;23.43;98004.72;5051475;28;20060;-76
2021/06/03 08:58:17;;;;;;;20.38;3.55;;;;;;;34.40;22.19;98004.28;5059071;28;20506;-76
2021/06/03 09:00:44;;;;;;;9.43;3.17;;;;;;;34.54;21.52;97993.81;5074352;28;20027;-76
2021/06/03 09:03:10;;;;;;;8.43;3.47;;;;;;;35.23;21.83;98016.28;5073904;28;20024;-76
2021/06/03 09:05:36;;;;;;;8.10;3.15;;;;;;;35.50;20.73;98005.53;5055694;28;20872;-76
2021/06/03 09:08:38;;;;;;;8.43;3.17;;;;;;;34.99;21.55;98008.97;5056092;28;20028;-76
2021/06/03 09:11:07;;;;;;;9.65;3.15;;;;;;;34.48;22.99;98008.66;4973046;28;20408;-76
2021/06/03 09:13:35;;;;;;;8.48;3.00;;;;;;;32.73;22.41;98000.84;5057837;28;20044;-76
2021/06/03 09:16:21;;;;;;;6.35;2.92;;;;;;;31.00;25.36;98019.25;5055906;28;20020;-76
2021/06/03 09:18:54;;;;;;;7.97;2.97;;;;;;;31.65;24.79;98030.28;5053219;28;20129;-76
2021/06/03 09:21:19;;;;;;;8.27;3.70;;;;;;;31.22;24.13;98009.69;5053579;28;20112;-76
2021/06/03 09:24:07;;;;;;;7.40;2.88;;;;;;;30.54;25.57;98016.41;5035794;28;20120;-76
2021/06/03 09:26:35;;;;;;;6.97;2.63;;;;;;;30.01;26.93;97999.66;5052996;28;20103;-76
2021/06/03 09:29:03;;;;;;;4.78;2.80;;;;;;;29.39;27.89;98020.94;5035826;28;20032;-76
2021/06/03 09:31:35;;;;;;;6.82;2.70;;;;;;;28.65;29.16;98017.75;5035629;28;20032;-76
2021/06/03 09:34:08;;;;;;;4.85;2.80;;;;;;;28.78;26.98;98015.13;5038983;28;20067;-76
2021/06/03 09:36:40;;;;;;;7.13;2.55;;;;;;;29.35;27.09;98009.47;5073169;28;20057;-76
2021/06/03 09:39:10;;;;;;;4.20;2.63;;;;;;;28.81;28.07;98012.00;5038787;28;20081;-76
2021/06/03 09:41:38;;;;;;;8.45;2.78;;;;;;;28.30;28.37;98005.72;5071357;28;20021;-76
2021/06/03 09:44:17;;;;;;;9.45;2.90;;;;;;;28.60;28.77;98019.38;5053293;28;20086;-76
2021/06/03 09:46:46;;;;;;;6.43;2.97;;;;;;;28.33;29.01;98008.06;5038439;28;20491;-76
2021/06/03 09:49:26;;;;;;;8.35;3.17;;;;;;;28.12;29.52;98015.47;5038591;28;20100;-76
2021/06/03 09:51:54;;;;;;;9.57;4.32;;;;;;;28.13;30.26;98014.41;5055262;28;20036;-76
2021/06/03 09:54:21;;;;;;;17.02;5.22;;;;;;;27.45;32.13;98026.59;5072918;28;20020;-76
2021/06/03 09:56:52;;;;;;;5.68;2.80;;;;;;;26.68;31.65;98014.09;5072889;28;20086;-76
2021/06/03 09:59:26;;;;;;;6.03;3.67;;;;;;;26.33;31.63;97999.13;5039711;28;20025;-76
2021/06/03 10:02:08;;;;;;;22.08;12.55;;;;;;;27.17;30.29;98012.63;5035236;28;20025;-76
2021/06/03 10:04:45;;;;;;;12.55;7.15;;;;;;;27.03;30.55;98012.63;5035215;28;20036;-75
2021/06/03 10:07:20;;;;;;;11.10;3.47;;;;;;;27.74;30.66;98023.00;5018515;28;20047;-76
2021/06/03 10:09:47;;;;;;;7.22;2.88;;;;;;;27.52;29.58;98008.31;5052585;28;20450;-76
2021/06/03 10:12:27;;;;;;;4.15;2.65;;;;;;;27.11;29.86;98005.13;5034914;28;20074;-76
2021/06/03 10:15:05;;;;;;;12.00;3.42;;;;;;;27.08;32.09;98012.91;5035578;28;20048;-75
2021/06/03 10:17:33;;;;;;;6.85;2.80;;;;;;;27.14;32.18;98020.38;5069077;28;20067;-75
2021/06/03 10:20:03;;;;;;;6.70;2.80;;;;;;;26.88;32.36;98009.84;5035006;28;20029;-75
2021/06/03 10:22:30;;;;;;;4.95;2.67;;;;;;;27.24;31.86;98010.84;5018189;28;20040;-75
2021/06/03 10:25:00;;;;;;;6.28;2.70;;;;;;;27.83;30.41;98010.84;5046555;28;20379;-76
2021/06/03 10:27:32;;;;;;;9.02;2.65;;;;;;;27.97;28.76;97997.06;5072488;28;20480;-76
2021/06/03 10:29:58;;;;;;;6.45;2.72;;;;;;;29.28;28.36;98003.06;5054709;28;20459;-76
2021/06/03 10:32:27;;;;;;;4.55;2.58;;;;;;;29.49;27.87;98003.00;5054376;28;20384;-75
2021/06/03 10:34:54;;;;;;;10.50;4.03;;;;;;;29.25;27.49;98011.75;5054131;28;20021;-76
2021/06/03 10:37:22;;;;;;;7.68;2.90;;;;;;;28.47;27.60;97990.66;5054217;28;20049;-77
2021/06/03 10:39:48;;;;;;;16.77;3.20;;;;;;;28.52;29.21;97995.56;5054021;28;20111;-77
2021/06/03 10:42:15;;;;;;;7.90;2.42;;;;;;;27.82;29.83;98009.13;5037714;28;20475;-77
2021/06/03 10:44:42;;;;;;;9.50;2.95;;;;;;;27.15;30.57;98011.13;5053947;28;20067;-77
2021/06/03 10:47:09;;;;;;;8.82;3.22;;;;;;;26.62;31.77;98023.06;5072123;28;20449;-77
2021/06/03 10:49:35;;;;;;;9.85;4.35;;;;;;;26.32;33.06;98017.47;5054179;28;20033;-77
2021/06/03 10:52:07;;;;;;;13.93;4.35;;;;;;;26.46;32.02;98010.31;5037284;28;20032;-77
2021/06/03 10:54:44;;;;;;;7.10;2.63;;;;;;;26.52;32.47;98017.00;5071787;28;20399;-77
2021/06/03 10:57:11;;;;;;;7.88;2.65;;;;;;;26.51;33.94;98018.88;5066929;28;20029;-77
2021/06/03 10:59:37;;;;;;;10.35;2.60;;;;;;;26.62;33.16;98009.34;5017234;28;20110;-76
2021/06/03 11:02:07;;;;;;;6.13;2.35;;;;;;;26.99;32.66;98025.88;5063976;28;20083;-77
2021/06/03 11:04:34;;;;;;;8.23;2.53;;;;;;;27.26;32.61;98018.88;5053710;28;20027;-76
2021/06/03 11:07:00;;;;;;;3.65;2.72;;;;;;;27.19;30.49;98015.19;5053588;28;20115;-77
2021/06/03 11:09:28;;;;;;;8.73;2.90;;;;;;;26.74;30.72;98007.88;5053797;28;20478;-76
2021/06/03 11:12:07;;;;;;;3.90;2.45;;;;;;;26.32;31.40;97987.31;5071312;28;20025;-77
2021/06/03 11:15:09;;;;;;;11.48;2.40;;;;;;;26.36;31.40;97993.28;5053339;28;20173;-77
2021/06/03 11:17:57;;;;;;;12.52;3.08;;;;;;;26.42;34.23;98008.16;5045708;28;20484;-77
2021/06/03 11:20:52;;;;;;;6.63;2.90;;;;;;;25.92;33.41;98001.25;5017447;28;20567;-76
2021/06/03 11:23:36;;;;;;;3.58;2.20;;;;;;;26.27;31.95;97992.47;5014087;28;20044;-78
2021/06/03 11:26:03;;;;;;;10.18;2.85;;;;;;;27.00;32.39;97980.88;5071133;28;20063;-76
2021/06/03 11:28:29;;;;;;;5.50;2.50;;;;;;;27.50;31.93;97976.56;5053567;28;20020;-76
2021/06/03 11:30:56;;;;;;;4.03;2.80;;;;;;;28.34;32.02;97993.28;5053339;28;20036;-76